ΕΜΥ, Εθνική Μετεωρολογική Υπηρεσία - Δελτία Καιρού, Προγνώσεις

ΑΕΡΟΝΑΥΤΙΛΙΑ

GREEK AIRPORTS CODES

TAF LGAL 151700Z 1518/1603 25010KT 9999 FEW020 TEMPO 1518/1521 FEW018 SCT025 BECMG 1519/1521 35010KT BECMG 1601/1603 06010KT=

EUROPEAN AIRPORTS CODES